createdAt,value
2022-08-30T00:00:32.742Z,1.10
2022-08-30T00:03:02.249Z,1.30
2022-08-30T00:05:31.481Z,1.52
2022-08-30T00:08:00.221Z,1.70
2022-08-30T00:10:30.705Z,2.00
2022-08-30T00:13:00.483Z,1.30
2022-08-30T00:15:30.009Z,1.10
2022-08-30T00:17:59.967Z,1.08
2022-08-30T00:20:30.629Z,9.65
2022-08-30T00:23:20.874Z,34.83
2022-08-30T00:25:49.150Z,11.25
2022-08-30T00:28:17.979Z,2.70
2022-08-30T00:30:47.530Z,2.42
2022-08-30T00:33:15.991Z,2.67
2022-08-30T00:35:45.531Z,1.90
2022-08-30T00:38:15.243Z,2.58
2022-08-30T00:43:37.828Z,1.33
2022-08-30T00:46:08.966Z,1.10
2022-08-30T00:48:42.897Z,1.00
2022-08-30T00:51:13.998Z,0.70
2022-08-30T00:53:47.423Z,1.00
2022-08-30T00:56:18.679Z,0.93
2022-08-30T00:58:51.411Z,1.00
2022-08-30T01:01:21.179Z,0.90
2022-08-30T01:06:19.361Z,1.52
2022-08-30T01:08:49.231Z,1.00
2022-08-30T01:11:22.475Z,1.13
2022-08-30T01:13:52.879Z,1.27
2022-08-30T01:16:24.110Z,1.10
2022-08-30T01:18:55.594Z,0.85
2022-08-30T01:21:53.370Z,0.90
2022-08-30T01:24:22.601Z,1.30
2022-08-30T01:26:50.637Z,1.40
2022-08-30T01:29:23.987Z,1.30
2022-08-30T01:31:52.180Z,1.35
2022-08-30T01:34:20.511Z,1.58
2022-08-30T01:36:50.233Z,1.20
2022-08-30T01:39:19.916Z,1.27
2022-08-30T01:41:48.129Z,1.23
2022-08-30T01:44:18.142Z,1.15
2022-08-30T01:46:48.215Z,1.40
2022-08-30T01:52:00.738Z,1.40
2022-08-30T01:54:33.274Z,1.20
2022-08-30T01:57:09.077Z,1.30
2022-08-30T01:59:39.107Z,1.80
2022-08-30T02:04:37.506Z,1.85
2022-08-30T02:09:33.565Z,1.60
2022-08-30T02:12:03.199Z,2.22
2022-08-30T02:14:31.270Z,1.58
2022-08-30T02:16:59.429Z,1.20
2022-08-30T02:19:27.562Z,1.40
2022-08-30T02:21:55.740Z,2.05
2022-08-30T02:24:23.896Z,1.88
2022-08-30T02:26:54.253Z,1.55
2022-08-30T02:29:23.767Z,1.83
2022-08-30T02:31:53.211Z,2.38
2022-08-30T02:34:21.710Z,1.85
2022-08-30T02:36:49.921Z,1.67
2022-08-30T02:39:17.929Z,1.80
2022-08-30T02:41:46.212Z,1.55
2022-08-30T02:44:14.581Z,1.67
2022-08-30T02:46:42.681Z,2.58
2022-08-30T02:49:32.580Z,1.40
2022-08-30T02:51:59.473Z,1.52
2022-08-30T02:54:27.821Z,1.80
2022-08-30T02:56:56.811Z,2.00
2022-08-30T02:59:24.787Z,2.30
2022-08-30T03:01:54.220Z,2.90
2022-08-30T03:04:26.738Z,2.65
2022-08-30T03:06:55.758Z,2.38
2022-08-30T03:09:25.273Z,2.83
2022-08-30T03:11:53.326Z,2.85
2022-08-30T03:14:21.532Z,1.83
2022-08-30T03:17:13.795Z,2.33
2022-08-30T03:19:45.456Z,2.00
2022-08-30T03:22:14.133Z,1.88
2022-08-30T03:24:43.023Z,1.92
2022-08-30T03:27:11.071Z,2.30
2022-08-30T03:29:39.990Z,2.35
2022-08-30T03:32:08.353Z,1.85
2022-08-30T03:34:36.531Z,2.50
2022-08-30T03:37:04.588Z,2.38
2022-08-30T03:39:33.654Z,2.63
2022-08-30T03:42:01.768Z,3.50
2022-08-30T03:44:31.189Z,2.53
2022-08-30T03:46:59.541Z,2.30
2022-08-30T03:49:27.744Z,2.75
2022-08-30T03:51:55.643Z,2.75
2022-08-30T03:54:24.958Z,2.78
2022-08-30T03:56:53.214Z,3.22
2022-08-30T03:59:21.263Z,2.50
2022-08-30T04:01:51.174Z,3.70
2022-08-30T04:06:50.328Z,2.80
2022-08-30T04:09:21.980Z,2.63
2022-08-30T04:11:50.461Z,2.97
2022-08-30T04:14:19.291Z,2.97
2022-08-30T04:16:48.453Z,2.40
2022-08-30T04:19:16.600Z,2.83
2022-08-30T04:21:45.677Z,3.08
2022-08-30T04:24:16.853Z,2.80
2022-08-30T04:26:44.964Z,3.10
2022-08-30T04:29:16.928Z,2.35
2022-08-30T04:31:46.502Z,3.20
2022-08-30T04:34:15.579Z,2.50
2022-08-30T04:36:48.244Z,2.87
2022-08-30T04:39:20.251Z,2.50
2022-08-30T04:41:49.186Z,2.40
2022-08-30T04:44:19.271Z,3.17
2022-08-30T04:46:48.941Z,2.80
2022-08-30T04:49:16.946Z,2.87
2022-08-30T04:51:44.912Z,2.95
2022-08-30T04:54:13.534Z,3.10
2022-08-30T04:56:41.618Z,2.47
2022-08-30T04:59:10.023Z,2.38
2022-08-30T05:01:45.373Z,3.08
2022-08-30T05:04:15.428Z,2.38
2022-08-30T05:06:43.641Z,2.22
2022-08-30T05:09:12.592Z,2.42
2022-08-30T05:11:40.711Z,2.40
2022-08-30T05:14:08.693Z,2.00
2022-08-30T05:16:38.106Z,2.00
2022-08-30T05:21:34.690Z,2.20
2022-08-30T05:24:03.782Z,3.72
2022-08-30T05:26:34.463Z,2.83
2022-08-30T05:29:02.678Z,7.13
2022-08-30T05:31:34.704Z,3.15
2022-08-30T05:34:03.296Z,2.70
2022-08-30T05:36:35.275Z,2.08
2022-08-30T05:39:04.706Z,1.52
2022-08-30T05:41:35.153Z,2.05
2022-08-30T05:44:09.009Z,2.03
2022-08-30T05:46:38.362Z,2.10
2022-08-30T05:49:08.373Z,1.95
2022-08-30T05:54:14.170Z,2.38
2022-08-30T05:56:45.844Z,2.80
2022-08-30T05:59:15.798Z,2.15
2022-08-30T06:04:14.794Z,2.28
2022-08-30T06:06:46.181Z,2.20
2022-08-30T06:09:15.651Z,2.20
2022-08-30T06:11:45.175Z,2.65
2022-08-30T06:14:15.751Z,2.65
2022-08-30T06:16:46.493Z,2.58
2022-08-30T06:19:16.647Z,1.73
2022-08-30T06:24:13.819Z,2.38
2022-08-30T06:26:47.053Z,2.13
2022-08-30T06:29:22.449Z,2.13
2022-08-30T06:31:51.110Z,1.85
2022-08-30T06:34:19.632Z,2.33
2022-08-30T06:36:47.876Z,3.08
2022-08-30T06:39:16.132Z,2.15
2022-08-30T06:41:44.347Z,2.30
2022-08-30T06:44:13.527Z,2.33
2022-08-30T06:47:00.213Z,2.33
2022-08-30T06:49:28.572Z,2.60
2022-08-30T06:51:56.710Z,3.25
2022-08-30T06:54:24.934Z,2.42
2022-08-30T06:56:58.719Z,2.47
2022-08-30T06:59:28.414Z,2.60
2022-08-30T07:01:57.193Z,2.65
2022-08-30T07:04:26.835Z,3.03
2022-08-30T07:06:54.929Z,2.70
2022-08-30T07:09:23.294Z,2.70
2022-08-30T07:11:55.232Z,2.95
2022-08-30T07:14:23.827Z,3.25
2022-08-30T07:16:52.319Z,3.20
2022-08-30T07:19:21.561Z,2.47
2022-08-30T07:21:51.256Z,3.78
2022-08-30T07:24:20.518Z,3.13
2022-08-30T07:26:53.559Z,3.38
2022-08-30T07:29:22.102Z,2.90
2022-08-30T07:31:50.832Z,3.03
2022-08-30T07:34:21.454Z,3.05
2022-08-30T07:36:51.615Z,2.90
2022-08-30T07:39:20.413Z,2.90
2022-08-30T07:41:49.605Z,3.67
2022-08-30T07:46:46.727Z,3.70
2022-08-30T07:49:14.932Z,3.70
2022-08-30T07:51:43.235Z,3.10
2022-08-30T07:54:11.313Z,3.05
2022-08-30T07:56:39.630Z,3.22
2022-08-30T07:59:07.628Z,3.33
2022-08-30T08:01:36.037Z,3.92
2022-08-30T08:04:05.655Z,3.75
2022-08-30T08:06:34.931Z,3.63
2022-08-30T08:09:03.667Z,3.22
2022-08-30T08:11:34.084Z,3.80
2022-08-30T08:14:03.984Z,3.58
2022-08-30T08:16:33.687Z,3.90
2022-08-30T08:19:03.802Z,3.50
2022-08-30T08:21:31.783Z,3.35
2022-08-30T08:23:59.982Z,3.50
2022-08-30T08:26:29.845Z,4.03
2022-08-30T08:28:58.790Z,3.95
2022-08-30T08:31:33.428Z,4.03
2022-08-30T08:34:06.336Z,4.53
2022-08-30T08:36:36.632Z,4.35
2022-08-30T08:39:06.635Z,4.22
2022-08-30T08:44:53.002Z,4.65
2022-08-30T08:47:43.366Z,4.72
2022-08-30T08:50:18.839Z,4.78
2022-08-30T08:53:45.768Z,5.30
2022-08-30T08:56:24.549Z,5.30
2022-08-30T08:58:57.327Z,5.13
2022-08-30T09:01:28.710Z,5.60
2022-08-30T09:03:59.905Z,8.65
2022-08-30T09:06:33.702Z,8.80
2022-08-30T09:09:01.849Z,9.40
2022-08-30T09:11:35.336Z,6.88
2022-08-30T09:14:04.527Z,6.65
2022-08-30T09:16:52.250Z,8.30
2022-08-30T09:19:34.450Z,6.63
2022-08-30T09:22:13.201Z,6.93
2022-08-30T09:24:46.766Z,6.78
2022-08-30T09:27:23.794Z,7.47
2022-08-30T09:30:06.732Z,7.20
2022-08-30T09:32:53.332Z,6.13
2022-08-30T09:35:37.269Z,5.97
2022-08-30T09:38:26.047Z,7.50
2022-08-30T09:40:57.955Z,6.30
2022-08-30T09:43:32.823Z,5.90
2022-08-30T09:46:04.005Z,6.07
2022-08-30T09:48:46.133Z,6.35
2022-08-30T09:51:14.018Z,6.68
2022-08-30T09:54:17.442Z,6.72
2022-08-30T09:57:13.125Z,6.03
2022-08-30T10:00:04.218Z,7.05
2022-08-30T10:03:03.438Z,6.22
2022-08-30T10:06:13.510Z,5.82
2022-08-30T10:09:04.344Z,5.80
2022-08-30T10:11:54.721Z,5.57
2022-08-30T10:14:37.421Z,6.40
2022-08-30T10:17:22.321Z,6.10
2022-08-30T10:20:20.470Z,7.00
2022-08-30T10:22:57.639Z,6.50
2022-08-30T10:25:34.817Z,7.10
2022-08-30T10:28:24.413Z,7.28
2022-08-30T10:31:28.068Z,6.13
2022-08-30T10:34:04.127Z,6.55
2022-08-30T10:36:40.999Z,7.55
2022-08-30T10:39:15.331Z,6.65
2022-08-30T10:41:52.431Z,6.45
2022-08-30T10:44:34.099Z,7.75
2022-08-30T10:47:31.605Z,7.70
2022-08-30T10:50:23.682Z,15.82
2022-08-30T10:52:55.696Z,18.80
2022-08-30T10:55:36.586Z,14.73
2022-08-30T10:58:07.277Z,11.57
2022-08-30T11:01:02.204Z,11.40
2022-08-30T11:04:08.230Z,9.38
2022-08-30T11:07:23.747Z,8.85
2022-08-30T11:10:17.245Z,7.60
2022-08-30T11:13:04.622Z,8.05
2022-08-30T11:15:55.850Z,7.68
2022-08-30T11:18:26.200Z,7.97
2022-08-30T11:21:16.340Z,8.48
2022-08-30T11:23:59.066Z,7.82
2022-08-30T11:26:55.403Z,8.57
2022-08-30T11:29:40.133Z,7.60
2022-08-30T11:32:32.634Z,7.65
2022-08-30T11:35:01.487Z,7.57
2022-08-30T11:37:37.994Z,7.32
2022-08-30T11:40:14.271Z,7.50
2022-08-30T11:42:48.503Z,8.35
2022-08-30T11:45:30.255Z,8.40
2022-08-30T11:48:01.298Z,11.65
2022-08-30T11:50:53.553Z,12.05
2022-08-30T11:53:34.418Z,11.35
2022-08-30T11:56:25.057Z,8.77
2022-08-30T11:59:20.785Z,9.63
2022-08-30T12:01:52.338Z,11.15
2022-08-30T12:04:20.766Z,11.13
2022-08-30T12:06:54.801Z,8.65
2022-08-30T12:09:27.248Z,9.98
2022-08-30T12:12:00.717Z,9.18
2022-08-30T12:14:54.171Z,8.98
2022-08-30T12:17:43.387Z,9.95
2022-08-30T12:20:30.683Z,9.00
2022-08-30T12:23:22.207Z,8.60
2022-08-30T12:26:11.048Z,8.40
2022-08-30T12:28:41.960Z,7.95
2022-08-30T12:31:17.214Z,8.65
2022-08-30T12:33:51.703Z,8.60
2022-08-30T12:36:41.490Z,8.63
2022-08-30T12:39:14.274Z,9.10
2022-08-30T12:41:43.857Z,9.23
2022-08-30T12:44:20.561Z,9.18
2022-08-30T12:46:57.148Z,8.60
2022-08-30T12:49:32.098Z,9.77
2022-08-30T12:52:29.483Z,13.35
2022-08-30T12:55:28.989Z,10.98
2022-08-30T12:58:10.598Z,11.35
2022-08-30T13:00:47.367Z,15.25
2022-08-30T13:03:24.605Z,27.35
2022-08-30T13:05:54.200Z,34.50
2022-08-30T13:08:52.081Z,34.85
2022-08-30T13:11:25.489Z,15.25
2022-08-30T13:14:22.188Z,18.02
2022-08-30T13:16:50.675Z,15.32
2022-08-30T13:19:36.699Z,12.85
2022-08-30T13:22:06.205Z,16.38
2022-08-30T13:24:35.081Z,21.52
2022-08-30T13:27:12.641Z,22.33
2022-08-30T13:29:41.191Z,27.13
2022-08-30T13:32:14.747Z,26.02
2022-08-30T13:34:43.138Z,23.42
2022-08-30T13:40:16.430Z,21.92
2022-08-30T13:42:45.208Z,26.27
2022-08-30T13:48:07.730Z,26.77
2022-08-30T13:50:35.703Z,27.40
2022-08-30T13:53:03.726Z,27.92
2022-08-30T13:55:33.838Z,25.13
2022-08-30T13:58:01.856Z,28.85
2022-08-30T14:00:34.755Z,26.33
2022-08-30T14:03:08.141Z,21.95
2022-08-30T14:05:49.358Z,23.13
2022-08-30T14:11:18.718Z,21.13
2022-08-30T14:16:38.966Z,20.27
2022-08-30T14:19:07.830Z,17.63
2022-08-30T14:21:37.149Z,14.95
2022-08-30T14:24:07.107Z,13.45
2022-08-30T14:26:46.153Z,14.90
2022-08-30T14:29:19.372Z,17.80
2022-08-30T14:31:49.448Z,16.13
2022-08-30T14:34:19.221Z,15.43
2022-08-30T14:36:47.559Z,21.63
2022-08-30T14:39:20.023Z,45.10
2022-08-30T14:41:55.328Z,30.17
2022-08-30T14:44:25.022Z,31.77
2022-08-30T14:46:53.773Z,28.27
2022-08-30T14:49:22.410Z,32.15
2022-08-30T14:51:52.386Z,28.48
2022-08-30T14:54:31.474Z,27.00
2022-08-30T14:56:59.565Z,25.13
2022-08-30T15:02:13.926Z,20.90
2022-08-30T15:04:42.013Z,22.30
2022-08-30T15:07:13.612Z,15.50
2022-08-30T15:09:42.420Z,14.55
2022-08-30T15:12:10.968Z,12.52
2022-08-30T15:14:40.242Z,12.90
2022-08-30T15:17:09.576Z,10.57
2022-08-30T15:19:37.638Z,10.43
2022-08-30T15:22:08.303Z,11.52
2022-08-30T15:24:36.515Z,15.27
2022-08-30T15:27:06.074Z,13.43
2022-08-30T15:29:34.491Z,10.90
2022-08-30T15:32:05.420Z,10.15
2022-08-30T15:34:33.745Z,10.60
2022-08-30T15:37:01.961Z,11.20
2022-08-30T15:39:31.393Z,11.00
2022-08-30T15:42:01.465Z,10.80
2022-08-30T15:44:34.427Z,11.13
2022-08-30T15:47:04.583Z,10.25
2022-08-30T15:49:32.953Z,9.40
2022-08-30T15:52:22.849Z,9.75
2022-08-30T15:57:20.087Z,8.50
2022-08-30T15:59:48.406Z,9.80
2022-08-30T16:02:17.089Z,9.80
2022-08-30T16:04:46.485Z,8.65
2022-08-30T16:07:16.265Z,8.32
2022-08-30T16:09:44.480Z,8.48
2022-08-30T16:12:12.480Z,8.73
2022-08-30T16:14:41.072Z,8.70
2022-08-30T16:17:11.447Z,8.82
2022-08-30T16:19:39.445Z,9.10
2022-08-30T16:22:10.932Z,7.93
2022-08-30T16:24:39.807Z,8.00
2022-08-30T16:27:09.489Z,8.00
2022-08-30T16:29:37.717Z,8.27
2022-08-30T16:32:05.859Z,8.00
2022-08-30T16:34:33.862Z,8.80
2022-08-30T16:37:02.120Z,9.23
2022-08-30T16:39:30.221Z,8.65
2022-08-30T16:41:58.862Z,7.60
2022-08-30T16:44:29.989Z,7.90
2022-08-30T16:46:58.215Z,8.23
2022-08-30T16:49:26.417Z,8.48
2022-08-30T16:51:55.529Z,9.10
2022-08-30T16:54:25.341Z,9.30
2022-08-30T16:56:53.864Z,10.20
2022-08-30T16:59:23.048Z,10.18
2022-08-30T17:04:20.601Z,10.57
2022-08-30T17:06:51.179Z,9.95
2022-08-30T17:09:20.757Z,9.18
2022-08-30T17:11:50.633Z,8.82
2022-08-30T17:14:27.581Z,8.73
2022-08-30T17:17:00.384Z,8.25
2022-08-30T17:19:32.651Z,8.73
2022-08-30T17:22:02.924Z,9.13
2022-08-30T17:24:30.901Z,8.57
2022-08-30T17:27:01.565Z,7.63
2022-08-30T17:29:29.667Z,8.73
2022-08-30T17:31:58.828Z,9.15
2022-08-30T17:34:28.628Z,8.15
2022-08-30T17:36:59.594Z,8.63
2022-08-30T17:39:28.713Z,8.80
2022-08-30T17:41:57.199Z,8.45
2022-08-30T17:44:29.849Z,8.85
2022-08-30T17:46:59.533Z,8.43
2022-08-30T17:49:29.721Z,8.30
2022-08-30T17:51:58.625Z,7.88
2022-08-30T17:54:28.885Z,8.23
2022-08-30T17:56:59.827Z,8.52
2022-08-30T17:59:29.303Z,8.32
2022-08-30T18:02:02.357Z,8.50
2022-08-30T18:04:31.820Z,8.90
2022-08-30T18:07:00.207Z,9.20
2022-08-30T18:12:18.197Z,8.38
2022-08-30T18:17:22.644Z,10.43
2022-08-30T18:19:51.921Z,9.98
2022-08-30T18:22:20.005Z,9.93
2022-08-30T18:24:48.169Z,10.95
2022-08-30T18:27:16.283Z,10.55
2022-08-30T18:29:44.498Z,10.10
2022-08-30T18:32:12.884Z,9.65
2022-08-30T18:34:42.487Z,9.80
2022-08-30T18:37:12.529Z,10.07
2022-08-30T18:39:41.917Z,10.82
2022-08-30T18:42:10.115Z,10.65
2022-08-30T18:44:38.457Z,11.63
2022-08-30T18:47:09.704Z,11.35
2022-08-30T18:49:38.413Z,11.40
2022-08-30T18:52:09.007Z,12.07
2022-08-30T18:54:49.706Z,11.50
2022-08-30T18:57:21.457Z,11.40
2022-08-30T18:59:50.840Z,11.18
2022-08-30T19:02:18.977Z,11.10
2022-08-30T19:04:47.708Z,11.48
2022-08-30T19:07:20.699Z,11.00
2022-08-30T19:09:49.557Z,12.00
2022-08-30T19:12:19.623Z,12.85
2022-08-30T19:14:49.364Z,11.93
2022-08-30T19:17:17.640Z,11.90
2022-08-30T19:19:49.240Z,11.20
2022-08-30T19:22:27.388Z,10.63
2022-08-30T19:24:58.713Z,10.18
2022-08-30T19:27:38.552Z,10.63
2022-08-30T19:30:17.320Z,9.25
2022-08-30T19:32:49.600Z,9.32
2022-08-30T19:35:19.029Z,9.35
2022-08-30T19:37:47.654Z,9.82
2022-08-30T19:40:19.612Z,9.25
2022-08-30T19:42:50.301Z,9.50
2022-08-30T19:45:23.292Z,9.95
2022-08-30T19:47:54.208Z,9.75
2022-08-30T19:50:23.090Z,10.02
2022-08-30T19:52:54.831Z,9.45
2022-08-30T19:55:28.606Z,9.63
2022-08-30T19:57:59.701Z,10.70
2022-08-30T20:00:31.156Z,10.20
2022-08-30T20:03:01.887Z,9.57
2022-08-30T20:05:31.578Z,9.25
2022-08-30T20:08:00.545Z,9.88
2022-08-30T20:10:30.801Z,11.02
2022-08-30T20:12:59.291Z,10.10
2022-08-30T20:15:27.682Z,10.20
2022-08-30T20:18:05.995Z,9.85
2022-08-30T20:20:42.651Z,10.48
2022-08-30T20:23:22.876Z,9.48
2022-08-30T20:24:26.632Z,9.25
2022-08-30T20:25:54.015Z,10.00
2022-08-30T20:28:24.163Z,9.80
2022-08-30T20:30:53.238Z,10.27
2022-08-30T20:33:22.234Z,10.35
2022-08-30T20:35:53.643Z,11.32
2022-08-30T20:38:22.520Z,11.48
2022-08-30T20:40:53.622Z,11.43
2022-08-30T20:43:24.772Z,11.85
2022-08-30T20:45:53.494Z,12.20
2022-08-30T20:48:23.312Z,11.27
2022-08-30T20:50:53.832Z,11.40
2022-08-30T20:53:21.854Z,11.00
2022-08-30T20:55:49.940Z,12.27
2022-08-30T20:58:18.420Z,11.70
2022-08-30T21:00:52.275Z,11.15
2022-08-30T21:03:26.205Z,10.50
2022-08-30T21:05:57.505Z,11.70
2022-08-30T21:08:25.997Z,11.00
2022-08-30T21:11:00.114Z,11.75
2022-08-30T21:13:28.249Z,10.00
2022-08-30T21:16:03.443Z,11.32
2022-08-30T21:18:36.087Z,11.38
2022-08-30T21:21:16.568Z,11.27
2022-08-30T21:23:44.903Z,11.82
2022-08-30T21:26:12.943Z,13.77
2022-08-30T21:28:41.080Z,16.15
2022-08-30T21:31:12.745Z,15.30
2022-08-30T21:33:41.823Z,16.10
2022-08-30T21:36:29.558Z,17.25
2022-08-30T21:39:00.594Z,15.35
2022-08-30T21:41:32.362Z,14.75
2022-08-30T21:44:03.300Z,13.40
2022-08-30T21:46:33.108Z,14.52
2022-08-30T21:49:03.784Z,14.45
2022-08-30T21:51:36.920Z,14.85
2022-08-30T21:54:07.805Z,14.48
2022-08-30T21:56:36.865Z,14.05
2022-08-30T21:59:06.239Z,14.37
2022-08-30T22:01:35.480Z,13.77
2022-08-30T22:04:09.776Z,13.75
2022-08-30T22:06:43.162Z,12.55
2022-08-30T22:09:14.980Z,13.68
2022-08-30T22:11:45.999Z,13.15
2022-08-30T22:14:15.660Z,12.10
2022-08-30T22:16:45.322Z,13.30
2022-08-30T22:19:16.939Z,13.45
2022-08-30T22:21:48.675Z,13.05
2022-08-30T22:24:17.768Z,14.18
2022-08-30T22:26:48.819Z,13.23
2022-08-30T22:29:17.984Z,13.40
2022-08-30T22:31:45.987Z,12.60
2022-08-30T22:34:15.818Z,13.43
2022-08-30T22:36:43.793Z,12.60
2022-08-30T22:39:11.835Z,12.93
2022-08-30T22:41:44.097Z,13.90
2022-08-30T22:44:13.154Z,12.70
2022-08-30T22:46:41.274Z,11.97
2022-08-30T22:49:11.097Z,12.70
2022-08-30T22:51:40.658Z,12.93
2022-08-30T22:54:10.951Z,13.30
2022-08-30T22:56:42.259Z,12.23
2022-08-30T22:59:10.293Z,12.52
2022-08-30T23:01:43.871Z,14.32
2022-08-30T23:04:13.788Z,11.95
2022-08-30T23:06:49.674Z,14.27
2022-08-30T23:09:18.529Z,13.95
2022-08-30T23:11:46.959Z,13.88
2022-08-30T23:14:15.859Z,12.80
2022-08-30T23:16:44.037Z,14.38
2022-08-30T23:19:12.293Z,13.00
2022-08-30T23:21:40.768Z,14.50
2022-08-30T23:24:27.703Z,13.50
2022-08-30T23:27:17.354Z,14.70
2022-08-30T23:30:03.926Z,13.70
2022-08-30T23:32:50.808Z,14.88
2022-08-30T23:35:39.648Z,14.05
2022-08-30T23:38:26.817Z,14.13
2022-08-30T23:41:13.231Z,15.75
2022-08-30T23:43:59.369Z,15.65
2022-08-30T23:46:45.842Z,14.77
2022-08-30T23:49:32.175Z,14.93
2022-08-30T23:52:18.678Z,14.30
2022-08-30T23:55:05.051Z,13.98
2022-08-30T23:57:52.972Z,11.73
